createdAt,value
2022-11-24T00:01:45.741Z,2.00
2022-11-24T00:04:12.555Z,2.00
2022-11-24T00:06:39.415Z,2.00
2022-11-24T00:09:06.901Z,2.00
2022-11-24T00:11:35.863Z,2.00
2022-11-24T00:14:04.763Z,2.00
2022-11-24T00:16:34.696Z,1.90
2022-11-24T00:19:03.063Z,1.90
2022-11-24T00:24:18.811Z,1.90
2022-11-24T00:26:45.625Z,1.90
2022-11-24T00:29:12.431Z,1.90
2022-11-24T00:31:41.871Z,1.90
2022-11-24T00:36:59.554Z,1.90
2022-11-24T00:39:26.719Z,1.80
2022-11-24T00:41:53.575Z,1.80
2022-11-24T00:44:20.403Z,1.60
2022-11-24T00:46:47.336Z,1.80
2022-11-24T00:49:14.359Z,1.90
2022-11-24T00:51:41.167Z,1.80
2022-11-24T00:54:08.076Z,1.90
2022-11-24T00:56:34.870Z,1.90
2022-11-24T00:59:01.705Z,1.90
2022-11-24T01:01:29.873Z,1.90
2022-11-24T01:03:58.351Z,1.90
2022-11-24T01:06:27.507Z,1.90
2022-11-24T01:08:55.805Z,1.90
2022-11-24T01:11:23.934Z,1.80
2022-11-24T01:13:57.969Z,1.80
2022-11-24T01:19:21.034Z,1.90
2022-11-24T01:24:34.724Z,1.90
2022-11-24T01:29:28.473Z,1.90
2022-11-24T01:31:55.273Z,1.90
2022-11-24T01:37:08.875Z,1.90
2022-11-24T01:39:35.669Z,1.90
2022-11-24T01:42:02.527Z,1.90
2022-11-24T01:44:30.831Z,1.90
2022-11-24T01:47:18.756Z,1.90
2022-11-24T01:49:49.040Z,1.90
2022-11-24T01:55:21.765Z,1.90
2022-11-24T01:57:54.815Z,1.90
2022-11-24T02:00:21.955Z,1.90
2022-11-24T02:05:44.294Z,1.90
2022-11-24T02:08:20.712Z,1.90
2022-11-24T02:10:48.456Z,1.90
2022-11-24T02:13:16.084Z,1.90
2022-11-24T02:15:43.279Z,1.90
2022-11-24T02:18:10.345Z,1.80
2022-11-24T02:20:37.225Z,1.90
2022-11-24T02:23:20.522Z,1.90
2022-11-24T02:26:05.584Z,1.80
2022-11-24T02:28:32.659Z,1.80
2022-11-24T02:31:00.993Z,1.80
2022-11-24T02:33:28.200Z,1.80
2022-11-24T02:35:55.099Z,1.80
2022-11-24T02:38:33.096Z,1.80
2022-11-24T02:41:07.484Z,1.80
2022-11-24T02:43:48.527Z,1.80
2022-11-24T02:46:15.417Z,1.90
2022-11-24T02:48:42.334Z,1.80
2022-11-24T02:51:09.123Z,1.80
2022-11-24T02:53:35.953Z,1.90
2022-11-24T02:56:02.762Z,1.90
2022-11-24T02:58:29.571Z,1.90
2022-11-24T03:00:56.473Z,1.90
2022-11-24T03:03:23.697Z,1.90
2022-11-24T03:05:50.678Z,1.80
2022-11-24T03:08:17.636Z,1.90
2022-11-24T03:10:44.848Z,1.90
2022-11-24T03:13:11.731Z,1.80
2022-11-24T03:15:38.703Z,1.80
2022-11-24T03:18:05.848Z,1.90
2022-11-24T03:20:32.941Z,1.80
2022-11-24T03:22:59.739Z,1.80
2022-11-24T03:25:26.598Z,1.80
2022-11-24T03:27:53.392Z,1.80
2022-11-24T03:30:20.301Z,1.80
2022-11-24T03:32:47.089Z,1.80
2022-11-24T03:35:13.867Z,1.80
2022-11-24T03:37:40.664Z,1.90
2022-11-24T03:40:07.845Z,1.90
2022-11-24T03:42:34.657Z,1.80
2022-11-24T03:45:16.607Z,1.90
2022-11-24T03:47:51.467Z,1.80
2022-11-24T03:50:18.398Z,1.90
2022-11-24T03:52:45.205Z,1.90
2022-11-24T03:55:11.999Z,1.90
2022-11-24T03:57:38.804Z,1.90
2022-11-24T04:00:06.058Z,1.90
2022-11-24T04:02:32.997Z,1.90
2022-11-24T04:04:59.830Z,1.80
2022-11-24T04:07:26.754Z,1.90
2022-11-24T04:09:53.619Z,1.80
2022-11-24T04:15:07.541Z,1.80
2022-11-24T04:20:21.121Z,1.80
2022-11-24T04:25:37.108Z,1.80
2022-11-24T04:30:50.928Z,1.80
2022-11-24T04:36:04.830Z,1.80
2022-11-24T04:39:23.767Z,1.80
2022-11-24T04:41:18.499Z,1.80
2022-11-24T04:46:32.054Z,1.90
2022-11-24T04:48:58.933Z,1.90
2022-11-24T04:51:25.712Z,1.80
2022-11-24T04:53:52.539Z,1.80
2022-11-24T04:56:19.345Z,1.80
2022-11-24T04:58:49.029Z,1.80
2022-11-24T05:01:15.954Z,1.90
2022-11-24T05:03:42.882Z,1.90
2022-11-24T05:06:09.743Z,1.90
2022-11-24T05:08:36.477Z,1.80
2022-11-24T05:13:54.367Z,1.80
2022-11-24T05:16:21.208Z,1.80
2022-11-24T05:18:48.008Z,1.80
2022-11-24T05:21:14.888Z,1.90
2022-11-24T05:23:41.685Z,1.90
2022-11-24T05:26:08.723Z,1.90
2022-11-24T05:28:35.489Z,1.90
2022-11-24T05:31:03.000Z,1.90
2022-11-24T05:33:30.829Z,1.90
2022-11-24T05:36:01.334Z,1.80
2022-11-24T05:38:28.189Z,1.90
2022-11-24T05:40:54.908Z,1.90
2022-11-24T05:43:21.634Z,1.90
2022-11-24T05:45:48.402Z,1.90
2022-11-24T05:48:15.565Z,1.90
2022-11-24T05:50:42.601Z,1.90
2022-11-24T05:53:12.838Z,1.90
2022-11-24T05:55:40.476Z,1.90
2022-11-24T05:58:08.800Z,1.90
2022-11-24T06:00:36.748Z,2.00
2022-11-24T06:03:04.176Z,1.90
2022-11-24T06:05:31.223Z,2.00
2022-11-24T06:07:59.832Z,2.00
2022-11-24T06:10:26.828Z,2.00
2022-11-24T06:12:53.758Z,2.00
2022-11-24T06:15:20.897Z,2.10
2022-11-24T06:17:55.392Z,2.00
2022-11-24T06:20:25.145Z,2.00
2022-11-24T06:22:58.135Z,2.00
2022-11-24T06:28:11.710Z,2.00
2022-11-24T06:30:38.431Z,2.10
2022-11-24T06:33:05.183Z,2.10
2022-11-24T06:35:31.913Z,2.10
2022-11-24T06:37:58.662Z,2.20
2022-11-24T06:40:25.412Z,2.20
2022-11-24T06:42:52.272Z,2.30
2022-11-24T06:45:19.079Z,2.20
2022-11-24T06:47:45.858Z,2.20
2022-11-24T06:50:12.600Z,2.20
2022-11-24T06:52:39.867Z,2.30
2022-11-24T06:55:07.255Z,2.20
2022-11-24T06:57:34.082Z,2.30
2022-11-24T07:00:00.908Z,2.20
2022-11-24T07:02:27.675Z,2.30
2022-11-24T07:04:54.383Z,2.30
2022-11-24T07:07:21.246Z,2.40
2022-11-24T07:09:48.038Z,2.40
2022-11-24T07:12:14.807Z,2.30
2022-11-24T07:14:41.590Z,2.30
2022-11-24T07:17:08.396Z,2.40
2022-11-24T07:19:35.148Z,2.40
2022-11-24T07:22:01.925Z,2.40
2022-11-24T07:24:28.697Z,2.40
2022-11-24T07:26:55.492Z,2.40
2022-11-24T07:29:22.254Z,2.40
2022-11-24T07:31:49.036Z,2.40
2022-11-24T07:34:15.815Z,2.40
2022-11-24T07:36:42.859Z,2.40
2022-11-24T07:41:57.856Z,2.50
2022-11-24T07:44:24.594Z,2.50
2022-11-24T07:46:51.745Z,2.50
2022-11-24T07:49:19.414Z,2.50
2022-11-24T07:51:46.181Z,2.60
2022-11-24T07:56:59.647Z,2.60
2022-11-24T08:02:13.643Z,2.70
2022-11-24T08:07:07.174Z,2.70
2022-11-24T08:09:34.169Z,2.70
2022-11-24T08:12:00.910Z,2.80
2022-11-24T08:14:27.717Z,2.80
2022-11-24T08:16:54.560Z,2.80
2022-11-24T08:19:22.350Z,2.80
2022-11-24T08:21:49.159Z,2.80
2022-11-24T08:24:16.093Z,2.80
2022-11-24T08:26:43.588Z,2.80
2022-11-24T08:29:10.704Z,2.80
2022-11-24T08:31:39.178Z,2.70
2022-11-24T08:34:06.441Z,2.80
2022-11-24T08:36:34.256Z,2.90
2022-11-24T08:39:01.053Z,2.90
2022-11-24T08:41:28.878Z,2.90
2022-11-24T08:43:55.813Z,3.00
2022-11-24T08:46:22.945Z,3.10
2022-11-24T08:48:52.490Z,3.00
2022-11-24T08:51:22.625Z,3.00
2022-11-24T08:53:49.430Z,3.00
2022-11-24T08:56:16.239Z,3.00
2022-11-24T08:58:43.071Z,3.10
2022-11-24T09:01:17.874Z,3.10
2022-11-24T09:03:51.366Z,3.10
2022-11-24T09:06:20.371Z,3.20
2022-11-24T09:08:47.098Z,3.10
2022-11-24T09:11:15.415Z,3.30
2022-11-24T09:13:42.739Z,3.20
2022-11-24T09:16:18.695Z,3.30
2022-11-24T09:21:34.203Z,3.30
2022-11-24T09:26:48.053Z,3.30
2022-11-24T09:31:45.147Z,3.40
2022-11-24T09:34:15.927Z,3.50
2022-11-24T09:39:29.797Z,3.50
2022-11-24T09:42:08.325Z,3.60
2022-11-24T09:44:44.050Z,3.70
2022-11-24T09:47:37.296Z,3.60
2022-11-24T09:50:18.366Z,3.70
2022-11-24T09:52:49.231Z,3.70
2022-11-24T09:55:34.799Z,3.80
2022-11-24T09:58:44.462Z,3.80
2022-11-24T10:01:19.391Z,3.90
2022-11-24T10:03:51.708Z,4.00
2022-11-24T10:06:24.013Z,4.00
2022-11-24T10:12:33.722Z,4.00
2022-11-24T10:15:18.631Z,4.10
2022-11-24T10:18:23.026Z,4.10
2022-11-24T10:21:12.848Z,4.20
2022-11-24T10:24:02.944Z,4.30
2022-11-24T10:26:37.143Z,4.20
2022-11-24T10:29:18.711Z,4.30
2022-11-24T10:31:46.771Z,4.50
2022-11-24T10:34:41.442Z,4.50
2022-11-24T10:37:10.936Z,4.50
2022-11-24T10:39:57.115Z,4.50
2022-11-24T10:42:29.390Z,4.50
2022-11-24T10:45:08.864Z,4.60
2022-11-24T10:47:35.650Z,4.60
2022-11-24T10:50:22.611Z,4.60
2022-11-24T10:52:58.174Z,4.70
2022-11-24T10:55:24.921Z,4.70
2022-11-24T10:57:51.696Z,4.80
2022-11-24T11:00:21.394Z,4.90
2022-11-24T11:02:49.972Z,4.90
2022-11-24T11:08:21.205Z,4.90
2022-11-24T11:11:11.711Z,4.90
2022-11-24T11:13:38.516Z,5.00
2022-11-24T11:16:23.835Z,5.00
2022-11-24T11:18:50.805Z,5.00
2022-11-24T11:21:33.568Z,5.10
2022-11-24T11:24:02.240Z,5.00
2022-11-24T11:26:36.065Z,5.10
2022-11-24T11:35:02.781Z,5.20
2022-11-24T11:37:32.364Z,5.10
2022-11-24T11:39:59.424Z,5.10
2022-11-24T11:45:24.777Z,5.30
2022-11-24T11:48:02.516Z,5.40
2022-11-24T11:51:21.658Z,5.40
2022-11-24T11:54:07.088Z,5.40
2022-11-24T12:00:16.386Z,5.60
2022-11-24T12:02:55.752Z,5.40
2022-11-24T12:05:59.185Z,5.50
2022-11-24T12:09:18.725Z,5.60
2022-11-24T12:11:53.173Z,5.60
2022-11-24T12:21:06.328Z,5.50
2022-11-24T12:23:47.806Z,5.40
2022-11-24T12:26:32.588Z,5.50
2022-11-24T12:29:26.898Z,5.30
2022-11-24T12:31:56.422Z,5.40
2022-11-24T12:34:44.082Z,5.50
2022-11-24T12:37:25.256Z,5.50
2022-11-24T12:40:14.767Z,5.50
2022-11-24T12:42:57.947Z,5.60
2022-11-24T12:45:43.246Z,5.70
2022-11-24T12:48:41.892Z,5.70
2022-11-24T12:51:17.716Z,5.70
2022-11-24T12:56:41.581Z,5.80
2022-11-24T12:59:39.845Z,5.80
2022-11-24T13:02:21.668Z,5.80
2022-11-24T13:07:57.188Z,5.80
2022-11-24T13:13:27.997Z,5.80
2022-11-24T13:16:34.787Z,5.80
2022-11-24T13:18:44.283Z,5.90
2022-11-24T13:21:36.828Z,5.90
2022-11-24T13:24:06.846Z,5.90
2022-11-24T13:26:42.676Z,5.90
2022-11-24T13:29:27.586Z,6.00
2022-11-24T13:31:55.885Z,6.00
2022-11-24T13:34:41.027Z,6.10
2022-11-24T13:37:31.592Z,6.10
2022-11-24T13:40:11.747Z,6.00
2022-11-24T13:42:58.855Z,6.00
2022-11-24T13:45:41.202Z,6.00
2022-11-24T13:48:20.650Z,6.00
2022-11-24T13:50:50.830Z,6.00
2022-11-24T13:53:24.755Z,5.90
2022-11-24T13:56:05.816Z,5.90
2022-11-24T13:58:37.779Z,5.90
2022-11-24T14:01:21.726Z,5.90
2022-11-24T14:07:07.869Z,5.80
2022-11-24T14:09:48.059Z,5.80
2022-11-24T14:12:25.533Z,5.80
2022-11-24T14:14:54.306Z,5.80
2022-11-24T14:17:21.986Z,5.80
2022-11-24T14:19:54.439Z,5.80
2022-11-24T14:22:41.185Z,5.90
2022-11-24T14:25:22.938Z,5.90
2022-11-24T14:27:49.793Z,5.90
2022-11-24T14:30:22.365Z,5.80
2022-11-24T14:33:00.460Z,5.80
2022-11-24T14:38:15.670Z,5.90
2022-11-24T14:43:32.705Z,5.90
2022-11-24T14:46:09.907Z,5.90
2022-11-24T14:48:48.256Z,5.90
2022-11-24T14:51:28.091Z,5.80
2022-11-24T14:53:58.765Z,5.80
2022-11-24T14:58:59.985Z,5.70
2022-11-24T15:01:26.783Z,5.60
2022-11-24T15:10:33.657Z,5.40
2022-11-24T15:13:03.226Z,5.40
2022-11-24T15:15:36.222Z,5.30
2022-11-24T15:20:52.518Z,5.20
2022-11-24T15:23:33.336Z,5.20
2022-11-24T15:26:20.308Z,5.20
2022-11-24T15:28:47.102Z,5.20
2022-11-24T15:31:14.796Z,5.20
2022-11-24T15:33:42.204Z,5.20
2022-11-24T15:36:09.029Z,5.20
2022-11-24T15:38:35.801Z,5.20
2022-11-24T15:41:05.432Z,5.20
2022-11-24T15:43:35.006Z,5.10
2022-11-24T15:46:03.501Z,5.10
2022-11-24T15:48:30.747Z,5.10
2022-11-24T15:50:59.310Z,5.10
2022-11-24T15:53:29.951Z,5.10
2022-11-24T15:55:57.111Z,5.10
2022-11-24T16:01:10.852Z,5.10
2022-11-24T16:03:52.955Z,5.00
2022-11-24T16:06:25.368Z,5.10
2022-11-24T16:08:53.798Z,5.00
2022-11-24T16:14:07.702Z,5.10
2022-11-24T16:19:21.404Z,5.00
2022-11-24T16:21:48.895Z,5.00
2022-11-24T16:24:15.730Z,5.00
2022-11-24T16:26:42.496Z,5.00
2022-11-24T16:29:09.292Z,5.00
2022-11-24T16:31:36.158Z,4.90
2022-11-24T16:34:03.232Z,4.90
2022-11-24T16:36:30.074Z,5.00
2022-11-24T16:38:56.903Z,5.00
2022-11-24T16:41:23.624Z,4.90
2022-11-24T16:43:50.359Z,4.90
2022-11-24T16:46:22.318Z,4.90
2022-11-24T16:48:54.172Z,4.90
2022-11-24T16:51:22.980Z,4.90
2022-11-24T16:53:57.557Z,4.90
2022-11-24T16:56:24.491Z,4.90
2022-11-24T16:58:51.234Z,4.90
2022-11-24T17:01:18.029Z,4.80
2022-11-24T17:03:44.826Z,4.80
2022-11-24T17:06:15.026Z,4.90
2022-11-24T17:08:42.951Z,4.80
2022-11-24T17:11:21.161Z,4.90
2022-11-24T17:13:48.480Z,4.90
2022-11-24T17:16:19.466Z,4.90
2022-11-24T17:18:46.708Z,4.90
2022-11-24T17:21:18.186Z,5.00
2022-11-24T17:23:45.526Z,4.90
2022-11-24T17:26:15.300Z,4.90
2022-11-24T17:28:42.427Z,4.90
2022-11-24T17:34:05.200Z,4.90
2022-11-24T17:39:24.491Z,5.00
2022-11-24T17:41:51.775Z,4.90
2022-11-24T17:44:18.498Z,4.80
2022-11-24T17:46:45.224Z,4.80
2022-11-24T17:51:58.644Z,4.70
2022-11-24T17:54:45.477Z,4.70
2022-11-24T17:57:12.063Z,4.60
2022-11-24T17:59:38.834Z,4.60
2022-11-24T18:02:05.656Z,4.50
2022-11-24T18:04:32.457Z,4.40
2022-11-24T18:06:59.203Z,4.40
2022-11-24T18:09:25.973Z,4.40
2022-11-24T18:11:52.729Z,4.40
2022-11-24T18:14:19.486Z,4.40
2022-11-24T18:16:46.335Z,4.40
2022-11-24T18:19:13.140Z,4.30
2022-11-24T18:21:41.306Z,4.30
2022-11-24T18:24:09.809Z,4.20
2022-11-24T18:26:36.694Z,4.20
2022-11-24T18:29:04.091Z,4.20
2022-11-24T18:31:31.048Z,4.10
2022-11-24T18:33:57.909Z,4.10
2022-11-24T18:36:30.002Z,4.10
2022-11-24T18:41:45.421Z,4.10
2022-11-24T18:46:58.925Z,4.10
2022-11-24T18:52:12.316Z,4.00
2022-11-24T18:54:39.076Z,4.00
2022-11-24T18:57:05.793Z,3.90
2022-11-24T18:59:32.537Z,3.90
2022-11-24T19:01:59.401Z,3.90
2022-11-24T19:04:26.283Z,3.90
2022-11-24T19:06:53.035Z,3.90
2022-11-24T19:09:19.819Z,3.90
2022-11-24T19:11:47.639Z,3.90
2022-11-24T19:14:17.895Z,3.90
2022-11-24T19:16:45.465Z,3.80
2022-11-24T19:19:12.512Z,3.80
2022-11-24T19:21:40.670Z,3.80
2022-11-24T19:24:09.018Z,3.70
2022-11-24T19:26:36.305Z,3.60
2022-11-24T19:29:04.350Z,3.50
2022-11-24T19:31:31.331Z,3.50
2022-11-24T19:33:58.277Z,3.50
2022-11-24T19:36:25.097Z,3.50
2022-11-24T19:41:40.969Z,3.50
2022-11-24T19:46:58.568Z,3.70
2022-11-24T19:49:25.313Z,3.70
2022-11-24T19:51:53.456Z,3.70
2022-11-24T19:54:20.165Z,3.80
2022-11-24T19:56:47.012Z,3.90
2022-11-24T19:59:14.294Z,3.90
2022-11-24T20:01:41.161Z,3.90
2022-11-24T20:04:12.271Z,3.90
2022-11-24T20:06:42.017Z,3.90
2022-11-24T20:09:10.784Z,3.90
2022-11-24T20:14:24.347Z,3.90
2022-11-24T20:19:37.769Z,3.90
2022-11-24T20:22:04.526Z,3.90
2022-11-24T20:24:31.232Z,3.90
2022-11-24T20:26:58.741Z,3.90
2022-11-24T20:29:25.693Z,4.00
2022-11-24T20:31:54.762Z,4.00
2022-11-24T20:34:24.019Z,3.90
2022-11-24T20:39:37.501Z,3.90
2022-11-24T20:42:04.454Z,3.80
2022-11-24T20:44:31.286Z,3.80
2022-11-24T20:46:58.504Z,3.80
2022-11-24T20:49:26.198Z,3.70
2022-11-24T20:51:52.991Z,3.80
2022-11-24T20:54:19.958Z,3.70
2022-11-24T20:56:47.260Z,3.70
2022-11-24T20:59:20.143Z,3.80
2022-11-24T21:01:48.145Z,3.80
2022-11-24T21:04:19.028Z,3.70
2022-11-24T21:06:45.895Z,3.70
2022-11-24T21:09:12.736Z,3.70
2022-11-24T21:11:40.300Z,3.60
2022-11-24T21:14:08.128Z,3.60
2022-11-24T21:16:37.159Z,3.60
2022-11-24T21:21:59.745Z,3.50
2022-11-24T21:27:13.166Z,3.50
2022-11-24T21:32:26.593Z,3.50
2022-11-24T21:34:53.382Z,3.50
2022-11-24T21:37:20.159Z,3.40
2022-11-24T21:39:46.963Z,3.40
2022-11-24T21:42:13.827Z,3.40
2022-11-24T21:44:40.634Z,3.30
2022-11-24T21:47:07.368Z,3.30
2022-11-24T21:49:34.170Z,3.30
2022-11-24T21:52:00.902Z,3.20
2022-11-24T21:54:27.678Z,3.20
2022-11-24T21:56:54.428Z,3.20
2022-11-24T21:59:21.240Z,3.10
2022-11-24T22:01:48.060Z,3.10
2022-11-24T22:04:14.886Z,3.10
2022-11-24T22:06:41.600Z,3.00
2022-11-24T22:09:09.216Z,3.00
2022-11-24T22:11:38.096Z,2.90
2022-11-24T22:14:04.846Z,2.80
2022-11-24T22:16:31.847Z,2.80
2022-11-24T22:19:00.119Z,2.60
2022-11-24T22:21:26.901Z,2.70
2022-11-24T22:23:53.663Z,2.60
2022-11-24T22:26:22.255Z,2.60
2022-11-24T22:28:49.618Z,2.50
2022-11-24T22:31:18.961Z,2.40
2022-11-24T22:33:46.506Z,2.50
2022-11-24T22:36:14.808Z,2.40
2022-11-24T22:38:42.642Z,2.30
2022-11-24T22:41:12.037Z,2.30
2022-11-24T22:43:40.444Z,2.30
2022-11-24T22:46:08.446Z,2.20
2022-11-24T22:48:35.570Z,2.10
2022-11-24T22:51:11.359Z,2.00
2022-11-24T22:53:39.025Z,2.10
2022-11-24T22:58:55.270Z,2.10
2022-11-24T23:04:11.620Z,1.90
2022-11-24T23:09:25.235Z,1.70
2022-11-24T23:11:52.068Z,1.70
2022-11-24T23:14:18.965Z,1.70
2022-11-24T23:16:45.756Z,1.70
2022-11-24T23:21:59.444Z,1.60
2022-11-24T23:24:26.308Z,1.60
2022-11-24T23:26:53.099Z,1.60
2022-11-24T23:29:19.980Z,1.50
2022-11-24T23:31:46.775Z,1.50
2022-11-24T23:34:13.625Z,1.50
2022-11-24T23:36:40.419Z,1.50
2022-11-24T23:39:09.137Z,1.50
2022-11-24T23:41:36.483Z,1.50
2022-11-24T23:44:03.811Z,1.50
2022-11-24T23:46:30.989Z,1.50
2022-11-24T23:48:57.903Z,1.50
2022-11-24T23:51:28.463Z,1.50
2022-11-24T23:56:42.795Z,1.50
2022-11-24T23:59:10.911Z,1.50
